Time;durP1;ratioP1;P1;durP2;ratioP2;P2;SDS_P1;SDS_P2;PMS_P1;PMS_P2;Temp;Humidity;BMP_temperature;BMP_pressure;BME280_temperature;BME280_humidity;BME280_pressure;Samples;Min_cycle;Max_cycle;Signal;HPM_P1;HPM_P2
2022/09/25 00:01:41;;;;;;;;;;;13.50;99.90;;;;;;7336868;19;109661;-82
2022/09/25 00:04:08;;;;;;;;;;;13.50;99.90;;;;;;7338173;19;109107;-82
2022/09/25 00:06:35;;;;;;;;;;;13.50;99.90;;;;;;7338053;19;110228;-82
2022/09/25 00:09:03;;;;;;;;;;;13.60;99.90;;;;;;7343546;19;110040;-81
2022/09/25 00:11:37;;;;;;;;;;;13.60;99.90;;;;;;7337071;19;110471;-82
2022/09/25 00:14:04;;;;;;;;;;;13.60;99.90;;;;;;7335627;19;109573;-82
2022/09/25 00:16:31;;;;;;;;;;;13.60;99.90;;;;;;7337763;19;110355;-82
2022/09/25 00:21:44;;;;;;;;;;;13.60;99.90;;;;;;7340505;19;109514;-82
2022/09/25 00:24:12;;;;;;;;;;;13.70;99.90;;;;;;7338997;19;112916;-81
2022/09/25 00:26:40;;;;;;;;;;;13.70;99.90;;;;;;7337815;19;110174;-82
2022/09/25 00:29:13;;;;;;;;;;;13.70;99.90;;;;;;7334412;19;108593;-82
2022/09/25 00:31:41;;;;;;;;;;;13.60;99.90;;;;;;7341950;19;108453;-84
2022/09/25 00:34:08;;;;;;;;;;;13.60;99.90;;;;;;7335009;19;108403;-82
2022/09/25 00:36:36;;;;;;;;;;;13.60;99.90;;;;;;7337107;19;114928;-83
2022/09/25 00:39:02;;;;;;;;;;;13.60;99.90;;;;;;7336400;19;113802;-83
2022/09/25 00:41:33;;;;;;;;;;;13.70;99.90;;;;;;7337865;19;109201;-83
2022/09/25 00:44:01;;;;;;;;;;;13.60;99.90;;;;;;7335863;19;109743;-83
2022/09/25 00:46:39;;;;;;;;;;;13.60;99.90;;;;;;7329935;19;110512;-83
2022/09/25 00:49:11;;;;;;;;;;;13.60;99.90;;;;;;7336581;19;109676;-82
2022/09/25 00:51:44;;;;;;;;;;;13.50;99.90;;;;;;7334597;19;110160;-82
2022/09/25 00:54:15;;;;;;;;;;;13.50;99.90;;;;;;7339464;19;110077;-83
2022/09/25 00:56:43;;;;;;;;;;;13.50;99.90;;;;;;7337156;19;109367;-85
2022/09/25 00:59:12;;;;;;;;;;;13.50;99.90;;;;;;7336015;19;109923;-85
2022/09/25 01:01:39;;;;;;;;;;;13.40;99.90;;;;;;7336525;19;108627;-84
2022/09/25 01:04:06;;;;;;;;;;;13.50;99.90;;;;;;7334912;19;108779;-84
2022/09/25 01:06:33;;;;;;;;;;;13.40;99.90;;;;;;7338053;19;110274;-84
2022/09/25 01:09:01;;;;;;;;;;;13.40;99.90;;;;;;7334509;19;109119;-82
2022/09/25 01:11:29;;;;;;;;;;;13.40;99.90;;;;;;7334895;19;109726;-82
2022/09/25 01:13:59;;;;;;;;;;;13.40;99.90;;;;;;7333574;19;110630;-83
2022/09/25 01:16:31;;;;;;;;;;;13.30;99.90;;;;;;7340387;19;109096;-82
2022/09/25 01:19:16;;;;;;;;;;;13.30;99.90;;;;;;7335130;19;110078;-82
2022/09/25 01:21:46;;;;;;;;;;;13.30;99.90;;;;;;7338156;19;108834;-83
2022/09/25 01:24:16;;;;;;;;;;;13.30;99.90;;;;;;7336286;19;108832;-83
2022/09/25 01:26:58;;;;;;;;;;;13.20;99.90;;;;;;7336068;19;110773;-83
2022/09/25 01:29:40;;;;;;;;;;;13.20;99.90;;;;;;7334524;19;108477;-83
2022/09/25 01:32:25;;;;;;;;;;;13.10;99.90;;;;;;7333698;19;110633;-83
2022/09/25 01:35:01;;;;;;;;;;;13.10;99.90;;;;;;7332596;19;110342;-83
2022/09/25 01:37:36;;;;;;;;;;;13.10;99.90;;;;;;7335389;19;109427;-82
2022/09/25 01:40:03;;;;;;;;;;;13.00;99.90;;;;;;7340215;19;110153;-83
2022/09/25 01:42:35;;;;;;;;;;;13.00;99.90;;;;;;7334259;19;108817;-82
2022/09/25 01:45:04;;;;;;;;;;;13.00;99.90;;;;;;7331074;19;109995;-83
2022/09/25 01:47:36;;;;;;;;;;;12.90;99.90;;;;;;7334751;19;113469;-82
2022/09/25 01:50:08;;;;;;;;;;;12.90;99.90;;;;;;7333793;19;108770;-83
2022/09/25 01:52:38;;;;;;;;;;;12.90;99.90;;;;;;7334560;19;109274;-82
2022/09/25 01:55:27;;;;;;;;;;;12.90;99.90;;;;;;7335891;19;110080;-84
2022/09/25 01:58:13;;;;;;;;;;;12.80;99.90;;;;;;7336185;19;108481;-83
2022/09/25 02:00:42;;;;;;;;;;;12.80;99.90;;;;;;7340430;19;109386;-82
2022/09/25 02:03:11;;;;;;;;;;;12.80;99.90;;;;;;7344994;19;110347;-82
2022/09/25 02:05:38;;;;;;;;;;;12.80;99.90;;;;;;7340123;19;109272;-81
2022/09/25 02:08:08;;;;;;;;;;;12.70;99.90;;;;;;7341068;19;110746;-82
2022/09/25 02:10:42;;;;;;;;;;;12.70;99.90;;;;;;7343923;19;109392;-82
2022/09/25 02:13:14;;;;;;;;;;;12.60;99.90;;;;;;7339562;19;109530;-82
2022/09/25 02:15:55;;;;;;;;;;;12.60;99.90;;;;;;7342359;19;110439;-82
2022/09/25 02:21:11;;;;;;;;;;;12.50;99.90;;;;;;7341479;19;108583;-82
2022/09/25 02:23:56;;;;;;;;;;;12.50;99.90;;;;;;7346781;19;110417;-82
2022/09/25 02:26:30;;;;;;;;;;;12.50;99.90;;;;;;7339747;19;110178;-82
2022/09/25 02:28:58;;;;;;;;;;;12.40;99.90;;;;;;7340057;19;109476;-81
2022/09/25 02:31:28;;;;;;;;;;;12.40;99.90;;;;;;7338105;19;108421;-82
2022/09/25 02:33:56;;;;;;;;;;;12.40;99.90;;;;;;7339909;19;110019;-81
2022/09/25 02:36:23;;;;;;;;;;;12.30;99.90;;;;;;7338118;19;110656;-81
2022/09/25 02:38:52;;;;;;;;;;;12.30;99.90;;;;;;7339635;19;110201;-82
2022/09/25 02:41:20;;;;;;;;;;;12.20;99.90;;;;;;7338634;19;109183;-82
2022/09/25 02:43:49;;;;;;;;;;;12.20;99.90;;;;;;7338517;19;110215;-82
2022/09/25 02:46:16;;;;;;;;;;;12.20;99.90;;;;;;7344711;19;108836;-81
2022/09/25 02:49:05;;;;;;;;;;;12.20;99.90;;;;;;7340976;19;110606;-81
2022/09/25 02:51:52;;;;;;;;;;;12.10;99.90;;;;;;7340081;19;109004;-81
2022/09/25 02:54:30;;;;;;;;;;;12.10;99.90;;;;;;7338693;19;110401;-82
2022/09/25 02:57:02;;;;;;;;;;;12.00;99.90;;;;;;7338257;19;111613;-81
2022/09/25 02:59:34;;;;;;;;;;;12.00;99.90;;;;;;7339097;19;108417;-81
2022/09/25 03:02:02;;;;;;;;;;;12.00;99.90;;;;;;7337452;19;108913;-81
2022/09/25 03:04:33;;;;;;;;;;;12.00;99.90;;;;;;7338043;19;110152;-81
2022/09/25 03:07:01;;;;;;;;;;;12.00;99.90;;;;;;7335736;19;109109;-81
2022/09/25 03:09:29;;;;;;;;;;;11.90;99.90;;;;;;7342494;19;108861;-81
2022/09/25 03:11:56;;;;;;;;;;;12.00;99.90;;;;;;7339228;19;110977;-82
2022/09/25 03:14:23;;;;;;;;;;;11.90;99.90;;;;;;7336476;19;108992;-82
2022/09/25 03:16:54;;;;;;;;;;;11.90;99.90;;;;;;7338605;19;109325;-81
2022/09/25 03:19:22;;;;;;;;;;;11.90;99.90;;;;;;7336149;19;112913;-81
2022/09/25 03:21:49;;;;;;;;;;;11.80;99.90;;;;;;7340015;19;108305;-82
2022/09/25 03:24:16;;;;;;;;;;;11.80;99.90;;;;;;7337243;19;110007;-81
2022/09/25 03:26:44;;;;;;;;;;;11.80;99.90;;;;;;7339894;19;108445;-81
2022/09/25 03:29:11;;;;;;;;;;;11.80;99.90;;;;;;7337343;19;110114;-82
2022/09/25 03:31:41;;;;;;;;;;;11.80;99.90;;;;;;7345221;19;110139;-81
2022/09/25 03:34:11;;;;;;;;;;;11.80;99.90;;;;;;7337252;19;110195;-81
2022/09/25 03:36:39;;;;;;;;;;;11.70;99.90;;;;;;7338379;19;109113;-82
2022/09/25 03:39:06;;;;;;;;;;;11.70;99.90;;;;;;7337707;19;111990;-82
2022/09/25 03:41:34;;;;;;;;;;;11.70;99.90;;;;;;7339216;19;110135;-81
2022/09/25 03:44:01;;;;;;;;;;;11.70;99.90;;;;;;7335877;19;111616;-82
2022/09/25 03:46:29;;;;;;;;;;;11.60;99.90;;;;;;7334905;19;108454;-82
2022/09/25 03:48:57;;;;;;;;;;;11.70;99.90;;;;;;7339010;19;108760;-81
2022/09/25 03:51:24;;;;;;;;;;;11.60;99.90;;;;;;7335888;19;110205;-82
2022/09/25 03:53:52;;;;;;;;;;;11.60;99.90;;;;;;7343208;19;108877;-81
2022/09/25 03:56:23;;;;;;;;;;;11.60;99.90;;;;;;7337184;19;110705;-82
2022/09/25 03:58:53;;;;;;;;;;;11.60;99.90;;;;;;7338176;19;110452;-81
2022/09/25 04:01:20;;;;;;;;;;;11.60;99.90;;;;;;7337285;19;110086;-81
2022/09/25 04:03:48;;;;;;;;;;;11.60;99.90;;;;;;7335411;19;110770;-80
2022/09/25 04:06:17;;;;;;;;;;;11.60;99.90;;;;;;7338023;19;108300;-81
2022/09/25 04:08:44;;;;;;;;;;;11.60;99.90;;;;;;7337933;19;110117;-81
2022/09/25 04:11:11;;;;;;;;;;;11.60;99.90;;;;;;7335173;19;110292;-82
2022/09/25 04:13:40;;;;;;;;;;;11.60;99.90;;;;;;7335630;19;109984;-82
2022/09/25 04:16:08;;;;;;;;;;;11.60;99.90;;;;;;7342253;19;109632;-82
2022/09/25 04:18:34;;;;;;;;;;;11.50;99.90;;;;;;7338224;19;109747;-81
2022/09/25 04:21:03;;;;;;;;;;;11.50;99.90;;;;;;7336508;19;109306;-82
2022/09/25 04:23:30;;;;;;;;;;;11.50;99.90;;;;;;7337156;19;109326;-81
2022/09/25 04:25:57;;;;;;;;;;;11.50;99.90;;;;;;7336810;19;110509;-81
2022/09/25 04:28:24;;;;;;;;;;;11.40;99.90;;;;;;7337174;19;109498;-81
2022/09/25 04:30:51;;;;;;;;;;;11.40;99.90;;;;;;7336002;19;113173;-82
2022/09/25 04:34:01;;;;;;;;;;;11.40;99.90;;;;;;7335230;19;109315;-82
2022/09/25 04:36:08;;;;;;;;;;;11.40;99.90;;;;;;7340708;19;111011;-81
2022/09/25 04:38:35;;;;;;;;;;;11.40;99.90;;;;;;7337109;19;109651;-81
2022/09/25 04:41:02;;;;;;;;;;;11.30;99.90;;;;;;7335462;19;109658;-82
2022/09/25 04:43:29;;;;;;;;;;;11.30;99.90;;;;;;7337126;19;111026;-81
2022/09/25 04:46:00;;;;;;;;;;;11.30;99.90;;;;;;7338092;19;108896;-81
2022/09/25 04:48:28;;;;;;;;;;;11.30;99.90;;;;;;7335928;19;109316;-81
2022/09/25 04:50:55;;;;;;;;;;;11.30;99.90;;;;;;7336847;19;109388;-82
2022/09/25 04:53:22;;;;;;;;;;;11.30;99.90;;;;;;7336734;19;108437;-81
2022/09/25 04:55:50;;;;;;;;;;;11.30;99.90;;;;;;7335851;19;108377;-81
2022/09/25 04:58:17;;;;;;;;;;;11.40;99.90;;;;;;7342048;19;110394;-81
2022/09/25 05:00:44;;;;;;;;;;;11.30;99.90;;;;;;7338114;19;111683;-82
2022/09/25 05:03:11;;;;;;;;;;;11.30;99.90;;;;;;7333984;19;110282;-82
2022/09/25 05:05:38;;;;;;;;;;;11.30;99.90;;;;;;7336817;19;109555;-82
2022/09/25 05:08:06;;;;;;;;;;;11.30;99.90;;;;;;7335642;19;108991;-81
2022/09/25 05:10:38;;;;;;;;;;;11.30;99.90;;;;;;7334643;19;109272;-82
2022/09/25 05:13:05;;;;;;;;;;;11.30;99.90;;;;;;7335413;19;109815;-81
2022/09/25 05:15:32;;;;;;;;;;;11.30;99.90;;;;;;7335694;19;109824;-82
2022/09/25 05:18:25;;;;;;;;;;;11.30;99.90;;;;;;7334433;19;112570;-82
2022/09/25 05:20:55;;;;;;;;;;;11.30;99.90;;;;;;7338298;19;108682;-82
2022/09/25 05:23:25;;;;;;;;;;;11.20;99.90;;;;;;7333655;19;109112;-81
2022/09/25 05:26:00;;;;;;;;;;;11.30;99.90;;;;;;7335378;19;109285;-82
2022/09/25 05:28:28;;;;;;;;;;;11.30;99.90;;;;;;7333873;19;109407;-82
2022/09/25 05:30:57;;;;;;;;;;;11.20;99.90;;;;;;7332681;19;110350;-81
2022/09/25 05:33:24;;;;;;;;;;;11.20;99.90;;;;;;7333444;19;109652;-81
2022/09/25 05:35:51;;;;;;;;;;;11.20;99.90;;;;;;7334630;19;112048;-82
2022/09/25 05:38:18;;;;;;;;;;;11.20;99.90;;;;;;7335620;19;110379;-82
2022/09/25 05:40:45;;;;;;;;;;;11.20;99.90;;;;;;7335348;19;109006;-81
2022/09/25 05:43:12;;;;;;;;;;;11.20;99.90;;;;;;7339473;19;109103;-81
2022/09/25 05:45:39;;;;;;;;;;;11.10;99.90;;;;;;7331764;19;108888;-82
2022/09/25 05:48:08;;;;;;;;;;;11.00;99.90;;;;;;7333375;19;109085;-81
2022/09/25 05:50:35;;;;;;;;;;;11.00;99.90;;;;;;7335544;19;111016;-82
2022/09/25 05:53:03;;;;;;;;;;;11.00;99.90;;;;;;7333906;19;108418;-82
2022/09/25 05:55:29;;;;;;;;;;;10.90;99.90;;;;;;7334610;19;113106;-81
2022/09/25 05:58:03;;;;;;;;;;;10.90;99.90;;;;;;7335658;19;110579;-82
2022/09/25 06:00:31;;;;;;;;;;;10.90;99.90;;;;;;7333631;19;108453;-81
2022/09/25 06:02:59;;;;;;;;;;;10.90;99.90;;;;;;7335648;19;109650;-82
2022/09/25 06:05:26;;;;;;;;;;;10.90;99.90;;;;;;7337923;19;110095;-81
2022/09/25 06:07:54;;;;;;;;;;;10.80;99.90;;;;;;7335360;19;109805;-81
2022/09/25 06:10:20;;;;;;;;;;;10.80;99.90;;;;;;7333702;19;109426;-81
2022/09/25 06:12:48;;;;;;;;;;;10.80;99.90;;;;;;7334816;19;108539;-82
2022/09/25 06:15:14;;;;;;;;;;;10.80;99.90;;;;;;7333726;19;109581;-81
2022/09/25 06:17:42;;;;;;;;;;;10.80;99.90;;;;;;7332014;19;109225;-82
2022/09/25 06:20:10;;;;;;;;;;;10.90;99.90;;;;;;7331344;19;108435;-81
2022/09/25 06:22:43;;;;;;;;;;;11.00;99.90;;;;;;7335582;19;109333;-82
2022/09/25 06:25:10;;;;;;;;;;;11.00;99.90;;;;;;7332750;19;109833;-82
2022/09/25 06:27:37;;;;;;;;;;;11.00;99.90;;;;;;7338582;19;108340;-82
2022/09/25 06:30:04;;;;;;;;;;;11.00;99.90;;;;;;7333936;19;109367;-82
2022/09/25 06:32:31;;;;;;;;;;;11.10;99.90;;;;;;7331755;19;110213;-82
2022/09/25 06:34:58;;;;;;;;;;;11.20;99.90;;;;;;7334776;19;110318;-82
2022/09/25 06:37:25;;;;;;;;;;;11.20;99.90;;;;;;7330510;19;109122;-82
2022/09/25 06:39:52;;;;;;;;;;;11.30;99.90;;;;;;7330924;19;108691;-82
2022/09/25 06:42:19;;;;;;;;;;;11.30;99.90;;;;;;7332945;19;109203;-83
2022/09/25 06:44:46;;;;;;;;;;;11.50;99.90;;;;;;7335646;19;111934;-83
2022/09/25 06:47:12;;;;;;;;;;;11.50;99.90;;;;;;7344475;19;108867;-83
2022/09/25 06:49:45;;;;;;;;;;;11.50;99.90;;;;;;7337813;19;110146;-83
2022/09/25 06:52:12;;;;;;;;;;;11.50;99.90;;;;;;7339929;19;109280;-82
2022/09/25 06:54:39;;;;;;;;;;;11.60;99.90;;;;;;7340686;19;112922;-82
2022/09/25 06:57:11;;;;;;;;;;;11.70;99.90;;;;;;7339909;19;109976;-82
2022/09/25 06:59:38;;;;;;;;;;;11.70;99.90;;;;;;7339900;19;109746;-83
2022/09/25 07:04:51;;;;;;;;;;;11.90;99.90;;;;;;7341104;19;109951;-83
2022/09/25 07:07:19;;;;;;;;;;;11.90;99.90;;;;;;7339549;19;108471;-83
2022/09/25 07:09:49;;;;;;;;;;;12.00;99.90;;;;;;7342844;19;112129;-82
2022/09/25 07:12:17;;;;;;;;;;;12.10;99.90;;;;;;7341416;19;108832;-82
2022/09/25 07:14:45;;;;;;;;;;;12.20;99.90;;;;;;7341877;19;111086;-83
2022/09/25 07:17:12;;;;;;;;;;;12.20;99.90;;;;;;7338657;19;109405;-83
2022/09/25 07:19:39;;;;;;;;;;;12.30;99.90;;;;;;7337494;19;108473;-83
2022/09/25 07:22:06;;;;;;;;;;;12.30;99.90;;;;;;7337747;19;110271;-83
2022/09/25 07:24:33;;;;;;;;;;;12.40;99.90;;;;;;7339137;19;113276;-83
2022/09/25 07:27:00;;;;;;;;;;;12.50;99.90;;;;;;7343516;19;108978;-83
2022/09/25 07:29:28;;;;;;;;;;;12.60;99.90;;;;;;7338076;19;110543;-83
2022/09/25 07:31:55;;;;;;;;;;;12.60;99.90;;;;;;7344715;19;112602;-84
2022/09/25 07:34:22;;;;;;;;;;;12.60;99.90;;;;;;7337482;19;109199;-82
2022/09/25 07:36:51;;;;;;;;;;;12.70;99.90;;;;;;7337879;19;109253;-83
2022/09/25 07:39:18;;;;;;;;;;;12.80;99.90;;;;;;7336128;19;108974;-83
2022/09/25 07:41:45;;;;;;;;;;;12.90;99.90;;;;;;7337170;19;112047;-83
2022/09/25 07:44:12;;;;;;;;;;;12.90;99.90;;;;;;7336595;19;109256;-83
2022/09/25 07:47:02;;;;;;;;;;;13.00;99.90;;;;;;7339059;19;110054;-85
2022/09/25 07:49:30;;;;;;;;;;;13.10;99.90;;;;;;7335855;19;108805;-83
2022/09/25 07:51:56;;;;;;;;;;;13.20;99.90;;;;;;7336541;19;110372;-84
2022/09/25 07:54:23;;;;;;;;;;;13.20;99.90;;;;;;7343616;19;108803;-84
2022/09/25 07:56:50;;;;;;;;;;;13.40;99.90;;;;;;7336857;19;112362;-81
2022/09/25 07:59:17;;;;;;;;;;;13.40;99.90;;;;;;7339688;19;108287;-84
2022/09/25 08:01:44;;;;;;;;;;;13.50;99.90;;;;;;7337472;19;111134;-84
2022/09/25 08:04:19;;;;;;;;;;;13.50;99.90;;;;;;7337254;19;110469;-83
2022/09/25 08:06:46;;;;;;;;;;;13.50;99.90;;;;;;7339107;19;108833;-84
2022/09/25 08:09:13;;;;;;;;;;;13.60;99.90;;;;;;7338301;19;109263;-84
2022/09/25 08:11:39;;;;;;;;;;;13.60;99.90;;;;;;7339126;19;110397;-84
2022/09/25 08:14:06;;;;;;;;;;;13.70;99.90;;;;;;7339177;19;108662;-86
2022/09/25 08:16:33;;;;;;;;;;;13.90;99.90;;;;;;7344110;19;109299;-86
2022/09/25 08:19:00;;;;;;;;;;;14.00;99.90;;;;;;7339779;19;108969;-85
2022/09/25 08:21:27;;;;;;;;;;;14.00;99.90;;;;;;7335018;19;109300;-84
2022/09/25 08:23:55;;;;;;;;;;;14.10;99.90;;;;;;7337153;19;111172;-85
2022/09/25 08:26:22;;;;;;;;;;;14.20;99.90;;;;;;7337058;19;110380;-85
2022/09/25 08:28:49;;;;;;;;;;;14.30;99.90;;;;;;7335533;19;112357;-86
2022/09/25 08:31:21;;;;;;;;;;;14.30;99.90;;;;;;7335566;19;111300;-84
2022/09/25 08:33:49;;;;;;;;;;;14.40;99.90;;;;;;7337172;19;108554;-85
2022/09/25 08:36:16;;;;;;;;;;;14.50;99.90;;;;;;7338510;19;109503;-84
2022/09/25 08:38:44;;;;;;;;;;;14.50;99.90;;;;;;7337201;19;108788;-85
2022/09/25 08:41:31;;;;;;;;;;;14.60;99.90;;;;;;7340572;19;109471;-84
2022/09/25 08:49:34;;;;;;;;;;;14.80;99.90;;;;;;7338286;19;108557;-84
2022/09/25 08:52:04;;;;;;;;;;;14.90;99.90;;;;;;7335635;19;110745;-85
2022/09/25 08:54:32;;;;;;;;;;;15.00;99.90;;;;;;7334772;19;108945;-84
2022/09/25 08:57:06;;;;;;;;;;;15.00;99.90;;;;;;7335747;19;109493;-85
2022/09/25 08:59:37;;;;;;;;;;;15.10;99.90;;;;;;7343464;19;110013;-84
2022/09/25 09:02:15;;;;;;;;;;;15.10;99.90;;;;;;7335012;19;109542;-83
2022/09/25 09:05:00;;;;;;;;;;;15.10;99.90;;;;;;7333955;19;110541;-84
2022/09/25 09:07:41;;;;;;;;;;;15.10;99.90;;;;;;7335175;19;109157;-85
2022/09/25 09:10:08;;;;;;;;;;;15.30;99.90;;;;;;7329952;19;110889;-84
2022/09/25 09:12:46;;;;;;;;;;;15.40;99.90;;;;;;7337132;19;109654;-85
2022/09/25 09:15:19;;;;;;;;;;;15.50;99.90;;;;;;7335039;19;110390;-84
2022/09/25 09:17:46;;;;;;;;;;;15.60;99.90;;;;;;7337197;19;110103;-85
2022/09/25 09:20:15;;;;;;;;;;;15.60;99.90;;;;;;7335611;19;112540;-84
2022/09/25 09:22:44;;;;;;;;;;;15.70;99.90;;;;;;7342666;19;109392;-83
2022/09/25 09:25:23;;;;;;;;;;;15.60;99.90;;;;;;7334048;19;110275;-84
2022/09/25 09:27:59;;;;;;;;;;;15.60;99.90;;;;;;7333540;19;118644;-84
2022/09/25 09:30:32;;;;;;;;;;;15.60;99.90;;;;;;7335667;19;109925;-82
2022/09/25 09:32:58;;;;;;;;;;;15.70;99.90;;;;;;7335411;19;109281;-83
2022/09/25 09:35:35;;;;;;;;;;;15.70;99.90;;;;;;7334428;19;116804;-84
2022/09/25 09:38:14;;;;;;;;;;;15.80;99.90;;;;;;7335891;19;108511;-84
2022/09/25 09:40:54;;;;;;;;;;;15.70;99.90;;;;;;7331816;19;113666;-84
2022/09/25 09:43:41;;;;;;;;;;;15.90;99.90;;;;;;7334490;19;108965;-87
2022/09/25 09:46:21;;;;;;;;;;;16.00;99.90;;;;;;7339946;19;109259;-85
2022/09/25 09:49:07;;;;;;;;;;;16.20;99.90;;;;;;7337008;19;108307;-84
2022/09/25 09:51:37;;;;;;;;;;;16.20;99.90;;;;;;7334431;19;109399;-86
2022/09/25 09:54:11;;;;;;;;;;;16.30;99.90;;;;;;7336400;19;111025;-84
2022/09/25 09:56:40;;;;;;;;;;;16.40;99.90;;;;;;7334821;19;108709;-84
2022/09/25 09:59:22;;;;;;;;;;;16.50;99.90;;;;;;7335327;19;108560;-84
2022/09/25 10:01:59;;;;;;;;;;;16.50;99.90;;;;;;7332449;19;110804;-85
2022/09/25 10:04:30;;;;;;;;;;;16.50;99.90;;;;;;7332900;19;108948;-85
2022/09/25 10:07:00;;;;;;;;;;;16.60;99.90;;;;;;7332762;19;109029;-83
2022/09/25 10:09:27;;;;;;;;;;;16.80;99.90;;;;;;7339030;19;109725;-83
2022/09/25 10:12:02;;;;;;;;;;;16.90;99.90;;;;;;7333596;19;108500;-84
2022/09/25 10:14:31;;;;;;;;;;;16.90;99.90;;;;;;7333041;19;110387;-84
2022/09/25 10:16:58;;;;;;;;;;;17.00;99.90;;;;;;7334753;19;108819;-84
2022/09/25 10:19:27;;;;;;;;;;;17.00;99.90;;;;;;7337601;19;109044;-83
2022/09/25 10:22:02;;;;;;;;;;;17.10;99.90;;;;;;7337539;19;109707;-83
2022/09/25 10:24:50;;;;;;;;;;;16.90;99.90;;;;;;7339885;19;108626;-84
2022/09/25 10:27:23;;;;;;;;;;;16.80;99.90;;;;;;7339141;19;109437;-82
2022/09/25 10:30:05;;;;;;;;;;;16.60;99.90;;;;;;7339919;19;111317;-84
2022/09/25 10:32:33;;;;;;;;;;;16.50;99.90;;;;;;7346934;19;108693;-83
2022/09/25 10:35:00;;;;;;;;;;;16.50;99.90;;;;;;7340093;19;109839;-84
2022/09/25 10:37:33;;;;;;;;;;;16.60;99.90;;;;;;7333665;19;108907;-84
2022/09/25 10:40:03;;;;;;;;;;;16.70;99.90;;;;;;7342307;19;109317;-84
2022/09/25 10:42:32;;;;;;;;;;;16.90;99.90;;;;;;7338524;19;111188;-83
2022/09/25 10:44:58;;;;;;;;;;;16.90;99.90;;;;;;7339021;19;109688;-83
2022/09/25 10:50:16;;;;;;;;;;;17.20;99.90;;;;;;7337485;19;110525;-83
2022/09/25 10:52:51;;;;;;;;;;;17.30;99.90;;;;;;7344023;19;108897;-83
2022/09/25 10:55:29;;;;;;;;;;;17.40;99.90;;;;;;7338442;19;110354;-84
2022/09/25 10:58:15;;;;;;;;;;;17.40;99.90;;;;;;7334871;19;109195;-85
2022/09/25 11:00:51;;;;;;;;;;;17.40;99.90;;;;;;7336413;19;111808;-84
2022/09/25 11:03:22;;;;;;;;;;;17.40;99.90;;;;;;7336906;19;109267;-83
2022/09/25 11:06:00;;;;;;;;;;;17.50;99.90;;;;;;7340244;19;108874;-83
2022/09/25 11:08:31;;;;;;;;;;;17.60;99.90;;;;;;7194487;19;111632;-82
2022/09/25 11:12:55;;;;;;;;;;;17.80;99.90;;;;;;6786163;19;109946;-83
2022/09/25 11:17:37;;;;;;;;;;;18.00;99.90;;;;;;7322929;19;108348;-83
2022/09/25 11:20:28;;;;;;;;;;;18.10;99.90;;;;;;7369611;19;109686;-83
2022/09/25 11:23:15;;;;;;;;;;;18.10;99.90;;;;;;7369031;19;109030;-83
2022/09/25 11:25:45;;;;;;;;;;;18.20;99.90;;;;;;7369735;19;110584;-83
2022/09/25 11:28:31;;;;;;;;;;;18.30;99.90;;;;;;7369281;19;108608;-84
2022/09/25 11:31:02;;;;;;;;;;;18.50;99.90;;;;;;7367651;19;109521;-84
2022/09/25 11:33:42;;;;;;;;;;;18.80;99.90;;;;;;7365535;19;111088;-82
2022/09/25 11:36:16;;;;;;;;;;;18.90;99.90;;;;;;7362223;19;109669;-83
2022/09/25 11:41:51;;;;;;;;;;;19.10;99.90;;;;;;7370972;19;109076;-84
2022/09/25 11:44:27;;;;;;;;;;;19.00;99.90;;;;;;7369350;19;109130;-82
2022/09/25 11:47:01;;;;;;;;;;;18.80;99.90;;;;;;7370020;19;110152;-83
2022/09/25 11:49:33;;;;;;;;;;;18.70;99.90;;;;;;7368016;19;108899;-81
2022/09/25 11:52:15;;;;;;;;;;;18.60;99.90;;;;;;7368033;19;111002;-83
2022/09/25 11:54:51;;;;;;;;;;;18.50;99.90;;;;;;7368472;19;109128;-82
2022/09/25 11:57:30;;;;;;;;;;;18.50;99.90;;;;;;7366910;19;109624;-83
2022/09/25 12:00:03;;;;;;;;;;;18.50;99.90;;;;;;7367724;19;110597;-82
2022/09/25 12:02:50;;;;;;;;;;;18.60;99.90;;;;;;7371732;19;117241;-83
2022/09/25 12:05:17;;;;;;;;;;;18.70;99.90;;;;;;7367844;19;109201;-82
2022/09/25 12:07:44;;;;;;;;;;;18.70;99.90;;;;;;7369600;19;110940;-82
2022/09/25 12:10:11;;;;;;;;;;;18.80;99.90;;;;;;7366058;19;109505;-83
2022/09/25 12:12:41;;;;;;;;;;;19.00;99.90;;;;;;7369328;19;109550;-83
2022/09/25 12:15:20;;;;;;;;;;;19.30;99.90;;;;;;7364362;19;110178;-81
2022/09/25 12:17:47;;;;;;;;;;;19.40;99.90;;;;;;7370662;19;109282;-83
2022/09/25 12:20:34;;;;;;;;;;;19.60;99.90;;;;;;7368492;19;109035;-83
2022/09/25 12:23:14;;;;;;;;;;;19.80;99.40;;;;;;7369576;19;111181;-83
2022/09/25 12:26:01;;;;;;;;;;;19.90;99.90;;;;;;7374874;19;108998;-83
2022/09/25 12:28:38;;;;;;;;;;;20.10;99.90;;;;;;7344864;19;110159;-84
2022/09/25 12:31:15;;;;;;;;;;;20.20;99.90;;;;;;7340587;19;108952;-83
2022/09/25 12:33:54;;;;;;;;;;;20.10;99.90;;;;;;7339354;19;109452;-83
2022/09/25 12:36:35;;;;;;;;;;;19.90;99.90;;;;;;7337204;19;110549;-85
2022/09/25 12:39:14;;;;;;;;;;;19.70;99.90;;;;;;7341011;19;109211;-83
2022/09/25 12:41:47;;;;;;;;;;;19.60;99.90;;;;;;7341203;19;109548;-84
2022/09/25 12:44:28;;;;;;;;;;;19.60;99.90;;;;;;7335973;19;111343;-84
2022/09/25 12:47:00;;;;;;;;;;;19.50;99.90;;;;;;7340493;19;108671;-84
2022/09/25 12:49:32;;;;;;;;;;;19.40;99.90;;;;;;7342511;19;108801;-83
2022/09/25 12:52:02;;;;;;;;;;;19.40;99.90;;;;;;7337653;19;109706;-84
2022/09/25 12:54:35;;;;;;;;;;;19.40;99.90;;;;;;7338681;19;108353;-84
2022/09/25 12:57:11;;;;;;;;;;;19.40;99.90;;;;;;7337510;19;110776;-83
2022/09/25 12:59:44;;;;;;;;;;;19.30;99.90;;;;;;7339839;19;108646;-83
2022/09/25 13:02:19;;;;;;;;;;;19.30;99.90;;;;;;7338315;19;111745;-83
2022/09/25 13:05:04;;;;;;;;;;;19.40;99.90;;;;;;7338227;19;114247;-81
2022/09/25 13:07:42;;;;;;;;;;;19.60;99.90;;;;;;7338939;19;109725;-82
2022/09/25 13:10:32;;;;;;;;;;;19.80;99.90;;;;;;7335582;19;109188;-83
2022/09/25 13:13:01;;;;;;;;;;;20.00;99.90;;;;;;7342037;19;112512;-83
2022/09/25 13:15:31;;;;;;;;;;;20.00;99.90;;;;;;7335431;19;109227;-82
2022/09/25 13:17:58;;;;;;;;;;;20.10;99.90;;;;;;7336211;19;110730;-83
2022/09/25 13:23:00;;;;;;;;;;;20.00;99.90;;;;;;7338265;19;109662;-83
2022/09/25 13:25:27;;;;;;;;;;;20.00;99.90;;;;;;7340373;19;109315;-81
2022/09/25 13:28:03;;;;;;;;;;;19.90;99.90;;;;;;7338156;19;108707;-83
2022/09/25 13:30:30;;;;;;;;;;;19.90;99.90;;;;;;7336848;19;110089;-85
2022/09/25 13:33:02;;;;;;;;;;;19.90;99.90;;;;;;7340495;19;110831;-83
2022/09/25 13:35:30;;;;;;;;;;;20.00;99.90;;;;;;7344492;19;109289;-83
2022/09/25 13:38:09;;;;;;;;;;;20.10;99.90;;;;;;7338349;19;110498;-82
2022/09/25 13:40:42;;;;;;;;;;;20.20;99.90;;;;;;7341402;19;109239;-82
2022/09/25 13:43:21;;;;;;;;;;;20.30;99.90;;;;;;7339827;19;109079;-83
2022/09/25 13:46:08;;;;;;;;;;;20.40;99.70;;;;;;7334402;19;109968;-82
2022/09/25 13:48:36;;;;;;;;;;;20.40;99.20;;;;;;7336002;19;108895;-82
2022/09/25 13:51:21;;;;;;;;;;;20.60;99.90;;;;;;7335941;19;109165;-82
2022/09/25 13:53:48;;;;;;;;;;;20.80;99.90;;;;;;7336826;19;111477;-83
2022/09/25 13:56:20;;;;;;;;;;;20.90;97.90;;;;;;7341047;19;109732;-83
2022/09/25 13:59:08;;;;;;;;;;;21.00;98.10;;;;;;7337416;19;110182;-83
2022/09/25 14:01:40;;;;;;;;;;;21.10;98.30;;;;;;7337208;19;111286;-80
2022/09/25 14:04:27;;;;;;;;;;;21.20;98.50;;;;;;7337874;19;110110;-81
2022/09/25 14:07:10;;;;;;;;;;;21.30;96.40;;;;;;7341787;19;109960;-82
2022/09/25 14:09:41;;;;;;;;;;;21.40;98.40;;;;;;7337845;19;108262;-83
2022/09/25 14:12:14;;;;;;;;;;;21.70;97.60;;;;;;7339577;19;110301;-84
2022/09/25 14:14:51;;;;;;;;;;;21.90;97.60;;;;;;7341501;19;110110;-82
2022/09/25 14:17:19;;;;;;;;;;;22.10;97.30;;;;;;7339620;19;108640;-83
2022/09/25 14:19:47;;;;;;;;;;;22.10;95.00;;;;;;7341924;19;110794;-82
2022/09/25 14:22:18;;;;;;;;;;;22.10;96.30;;;;;;7335678;19;109193;-84
2022/09/25 14:24:46;;;;;;;;;;;22.20;97.00;;;;;;7324083;19;110496;-85
2022/09/25 14:27:17;;;;;;;;;;;22.60;97.30;;;;;;7337230;19;110247;-84
2022/09/25 14:29:44;;;;;;;;;;;22.60;97.10;;;;;;7338167;19;108800;-84
2022/09/25 14:32:20;;;;;;;;;;;22.70;96.40;;;;;;7334341;19;111639;-85
2022/09/25 14:35:23;;;;;;;;;;;22.80;97.10;;;;;;7339027;19;112882;-84
2022/09/25 14:38:01;;;;;;;;;;;22.60;92.90;;;;;;7339910;19;108509;-83
2022/09/25 14:40:32;;;;;;;;;;;22.40;96.60;;;;;;7334583;19;109306;-85
2022/09/25 14:43:15;;;;;;;;;;;22.40;96.10;;;;;;7343362;19;110372;-84
2022/09/25 14:45:56;;;;;;;;;;;22.40;96.00;;;;;;7338102;19;110133;-84
2022/09/25 14:48:26;;;;;;;;;;;22.20;95.80;;;;;;7333493;19;110752;-85
2022/09/25 14:50:56;;;;;;;;;;;22.00;96.70;;;;;;7332734;19;109042;-84
2022/09/25 14:53:26;;;;;;;;;;;21.90;96.90;;;;;;7335330;19;109806;-84
2022/09/25 14:55:54;;;;;;;;;;;21.80;96.90;;;;;;7333258;19;113401;-85